createdAt,value
2023-05-09T00:00:21.696Z,14.20
2023-05-09T00:02:51.664Z,13.30
2023-05-09T00:05:21.434Z,13.30
2023-05-09T00:07:50.490Z,13.30
2023-05-09T00:10:19.470Z,13.20
2023-05-09T00:12:49.684Z,13.20
2023-05-09T00:15:19.232Z,13.20
2023-05-09T00:17:50.853Z,13.20
2023-05-09T00:20:20.387Z,13.10
2023-05-09T00:22:49.310Z,13.10
2023-05-09T00:25:18.361Z,13.10
2023-05-09T00:27:47.360Z,13.10
2023-05-09T00:30:16.428Z,13.10
2023-05-09T00:32:45.564Z,13.10
2023-05-09T00:35:17.316Z,13.00
2023-05-09T00:37:46.734Z,13.00
2023-05-09T00:40:16.096Z,13.00
2023-05-09T00:42:44.943Z,13.00
2023-05-09T00:45:14.048Z,13.00
2023-05-09T00:48:01.485Z,13.00
2023-05-09T00:50:32.944Z,13.00
2023-05-09T00:53:02.007Z,13.00
2023-05-09T00:55:31.387Z,12.90
2023-05-09T00:58:00.398Z,12.90
2023-05-09T01:00:29.571Z,12.90
2023-05-09T01:02:58.752Z,12.90
2023-05-09T01:05:39.860Z,12.90
2023-05-09T01:08:14.729Z,12.90
2023-05-09T01:10:49.831Z,12.90
2023-05-09T01:13:28.637Z,13.00
2023-05-09T01:16:06.273Z,13.00
2023-05-09T01:18:44.737Z,13.00
2023-05-09T01:21:19.819Z,13.00
2023-05-09T01:24:19.516Z,13.00
2023-05-09T01:27:03.762Z,13.00
2023-05-09T01:29:46.189Z,13.00
2023-05-09T01:32:19.486Z,13.10
2023-05-09T01:35:10.108Z,13.00
2023-05-09T01:37:43.700Z,13.00
2023-05-09T01:40:16.828Z,13.10
2023-05-09T01:42:50.178Z,13.10
2023-05-09T01:45:40.318Z,13.10
2023-05-09T01:48:11.391Z,13.10
2023-05-09T01:50:42.933Z,13.10
2023-05-09T01:53:13.650Z,13.20
2023-05-09T01:55:44.790Z,13.20
2023-05-09T01:58:16.459Z,13.20
2023-05-09T02:00:48.386Z,13.30
2023-05-09T02:03:17.827Z,13.30
2023-05-09T02:05:49.194Z,13.40
2023-05-09T02:08:22.290Z,13.40
2023-05-09T02:11:09.849Z,13.40
2023-05-09T02:13:38.892Z,13.40
2023-05-09T02:16:10.493Z,13.40
2023-05-09T02:18:39.873Z,13.40
2023-05-09T02:21:09.886Z,13.40
2023-05-09T02:23:40.423Z,13.40
2023-05-09T02:26:10.410Z,13.40
2023-05-09T02:28:40.605Z,13.40
2023-05-09T02:31:12.984Z,13.50
2023-05-09T02:33:44.467Z,13.50
2023-05-09T02:36:15.647Z,13.50
2023-05-09T02:38:45.707Z,13.50
2023-05-09T02:41:15.547Z,13.60
2023-05-09T02:43:44.648Z,13.60
2023-05-09T02:46:15.121Z,13.70
2023-05-09T02:48:44.128Z,13.70
2023-05-09T02:51:13.083Z,13.80
2023-05-09T02:53:41.882Z,13.80
2023-05-09T02:56:11.140Z,13.90
2023-05-09T02:58:40.164Z,13.90
2023-05-09T03:01:09.111Z,13.90
2023-05-09T03:03:40.262Z,13.90
2023-05-09T03:06:09.896Z,14.00
2023-05-09T03:08:38.863Z,14.10
2023-05-09T03:11:07.857Z,14.10
2023-05-09T03:13:41.446Z,14.20
2023-05-09T03:16:10.796Z,14.20
2023-05-09T03:18:41.160Z,14.20
2023-05-09T03:21:11.757Z,14.20
2023-05-09T03:23:41.354Z,14.20
2023-05-09T03:26:10.882Z,14.20
2023-05-09T03:28:40.056Z,14.30
2023-05-09T03:31:09.197Z,14.30
2023-05-09T03:33:38.169Z,14.30
2023-05-09T03:36:09.186Z,14.30
2023-05-09T03:38:39.513Z,14.40
2023-05-09T03:41:09.254Z,14.40
2023-05-09T03:43:38.339Z,14.40
2023-05-09T03:46:07.523Z,14.50
2023-05-09T03:48:37.351Z,14.50
2023-05-09T03:51:08.846Z,14.50
2023-05-09T03:53:41.306Z,14.60
2023-05-09T03:56:11.404Z,14.60
2023-05-09T03:58:47.169Z,14.60
2023-05-09T04:01:17.018Z,14.60
2023-05-09T04:03:47.138Z,14.60
2023-05-09T04:06:18.866Z,14.60
2023-05-09T04:08:47.884Z,14.60
2023-05-09T04:11:16.879Z,14.60
2023-05-09T04:13:48.451Z,14.60
2023-05-09T04:16:44.082Z,14.60
2023-05-09T04:19:13.192Z,14.70
2023-05-09T04:21:43.459Z,14.70
2023-05-09T04:24:12.483Z,14.70
2023-05-09T04:26:46.901Z,14.70
2023-05-09T04:29:19.256Z,14.70
2023-05-09T04:31:53.362Z,14.70
2023-05-09T04:34:26.579Z,14.70
2023-05-09T04:36:58.634Z,14.80
2023-05-09T04:39:46.199Z,14.70
2023-05-09T04:42:21.962Z,14.80
2023-05-09T04:44:52.288Z,14.80
2023-05-09T04:47:23.531Z,14.90
2023-05-09T04:49:52.894Z,14.90
2023-05-09T04:52:23.466Z,15.00
2023-05-09T04:54:52.442Z,15.00
2023-05-09T04:57:24.036Z,15.00
2023-05-09T04:59:57.979Z,15.10
2023-05-09T05:02:27.284Z,15.10
2023-05-09T05:05:10.218Z,15.10
2023-05-09T05:07:44.654Z,15.20
2023-05-09T05:10:18.382Z,15.20
2023-05-09T05:13:06.125Z,15.20
2023-05-09T05:15:36.099Z,15.30
2023-05-09T05:18:06.354Z,15.30
2023-05-09T05:20:37.465Z,15.40
2023-05-09T05:23:08.186Z,15.40
2023-05-09T05:25:37.203Z,15.50
2023-05-09T05:28:06.392Z,15.50
2023-05-09T05:30:35.678Z,15.50
2023-05-09T05:33:04.990Z,15.60
2023-05-09T05:35:33.988Z,15.60
2023-05-09T05:38:03.111Z,15.60
2023-05-09T05:40:33.521Z,15.60
2023-05-09T05:43:05.649Z,15.60
2023-05-09T05:45:36.213Z,15.60
2023-05-09T05:48:07.763Z,15.70
2023-05-09T05:50:37.555Z,15.70
2023-05-09T05:53:06.888Z,15.70
2023-05-09T05:55:37.606Z,15.80
2023-05-09T05:58:07.822Z,15.80
2023-05-09T06:00:37.265Z,15.90
2023-05-09T06:03:08.920Z,16.00
2023-05-09T06:05:49.169Z,16.10
2023-05-09T06:08:18.597Z,16.20
2023-05-09T06:10:48.928Z,16.30
2023-05-09T06:13:18.135Z,16.30
2023-05-09T06:15:52.404Z,16.40
2023-05-09T06:18:21.375Z,16.50
2023-05-09T06:20:50.214Z,16.60
2023-05-09T06:23:22.460Z,16.60
2023-05-09T06:25:53.346Z,16.60
2023-05-09T06:28:22.339Z,16.60
2023-05-09T06:30:51.208Z,16.60
2023-05-09T06:33:20.022Z,16.60
2023-05-09T06:35:48.964Z,16.60
2023-05-09T06:38:17.826Z,16.70
2023-05-09T06:40:46.613Z,16.70
2023-05-09T06:43:16.961Z,16.80
2023-05-09T06:45:45.824Z,16.80
2023-05-09T06:48:14.719Z,16.80
2023-05-09T06:50:43.653Z,16.80
2023-05-09T06:53:12.552Z,16.90
2023-05-09T06:55:41.826Z,16.90
2023-05-09T06:58:11.670Z,16.90
2023-05-09T07:00:42.129Z,17.00
2023-05-09T07:03:11.907Z,17.00
2023-05-09T07:05:40.868Z,17.00
2023-05-09T07:08:09.733Z,17.00
2023-05-09T07:10:39.079Z,17.00
2023-05-09T07:13:08.097Z,17.10
2023-05-09T07:15:41.786Z,17.10
2023-05-09T07:18:12.809Z,17.20
2023-05-09T07:20:41.965Z,17.20
2023-05-09T07:23:10.844Z,17.40
2023-05-09T07:25:39.828Z,17.50
2023-05-09T07:28:08.813Z,17.60
2023-05-09T07:30:37.690Z,17.70
2023-05-09T07:33:06.948Z,17.80
2023-05-09T07:35:37.421Z,17.90
2023-05-09T07:38:06.810Z,18.00
2023-05-09T07:40:36.633Z,18.10
2023-05-09T07:43:05.705Z,18.20
2023-05-09T07:45:34.879Z,18.30
2023-05-09T07:48:03.996Z,18.40
2023-05-09T07:50:32.964Z,18.50
2023-05-09T07:53:03.344Z,18.50
2023-05-09T07:55:32.502Z,18.50
2023-05-09T07:58:01.357Z,18.50
2023-05-09T08:00:30.184Z,18.50
2023-05-09T08:03:00.037Z,18.40
2023-05-09T08:05:29.333Z,18.40
2023-05-09T08:07:58.213Z,18.40
2023-05-09T08:10:30.821Z,18.50
2023-05-09T08:13:00.058Z,18.50
2023-05-09T08:15:28.969Z,18.50
2023-05-09T08:17:57.826Z,18.60
2023-05-09T08:20:28.147Z,18.60
2023-05-09T08:22:57.275Z,18.60
2023-05-09T08:25:27.628Z,18.70
2023-05-09T08:27:56.498Z,18.70
2023-05-09T08:30:25.570Z,18.70
2023-05-09T08:32:54.506Z,18.70
2023-05-09T08:35:27.326Z,18.70
2023-05-09T08:37:57.219Z,18.70
2023-05-09T08:40:28.082Z,18.70
2023-05-09T08:42:57.784Z,18.70
2023-05-09T08:45:30.811Z,18.80
2023-05-09T08:48:01.212Z,18.80
2023-05-09T08:50:30.775Z,18.90
2023-05-09T08:53:09.652Z,19.00
2023-05-09T08:55:41.474Z,19.10
2023-05-09T08:58:11.145Z,19.20
2023-05-09T09:00:40.884Z,18.80
2023-05-09T09:03:09.954Z,19.50
2023-05-09T09:05:42.402Z,19.40
2023-05-09T09:08:12.866Z,19.40
2023-05-09T09:10:47.506Z,19.40
2023-05-09T09:13:18.323Z,19.40
2023-05-09T09:15:48.307Z,19.30
2023-05-09T09:18:24.022Z,19.40
2023-05-09T09:20:58.074Z,19.50
2023-05-09T09:23:29.269Z,19.70
2023-05-09T09:26:04.974Z,19.90
2023-05-09T09:28:34.973Z,20.00
2023-05-09T09:31:04.053Z,20.10
2023-05-09T09:33:33.007Z,20.10
2023-05-09T09:36:02.029Z,20.10
2023-05-09T09:38:41.585Z,20.10
2023-05-09T09:41:14.213Z,20.20
2023-05-09T09:43:47.565Z,20.20
2023-05-09T09:46:18.623Z,20.30
2023-05-09T09:48:52.935Z,20.40
2023-05-09T09:51:23.163Z,20.50
2023-05-09T09:53:53.001Z,20.50
2023-05-09T09:56:23.804Z,20.60
2023-05-09T09:59:09.336Z,20.70
2023-05-09T10:01:54.371Z,20.80
2023-05-09T10:04:23.553Z,20.80
2023-05-09T10:06:59.929Z,20.80
2023-05-09T10:09:29.482Z,20.90
2023-05-09T10:12:05.049Z,20.90
2023-05-09T10:14:36.040Z,21.00
2023-05-09T10:17:06.812Z,21.20
2023-05-09T10:19:37.352Z,21.30
2023-05-09T10:22:10.304Z,21.40
2023-05-09T10:24:46.370Z,21.50
2023-05-09T10:27:19.566Z,21.70
2023-05-09T10:29:52.839Z,21.70
2023-05-09T10:32:29.086Z,21.80
2023-05-09T10:35:08.320Z,21.80
2023-05-09T10:37:38.179Z,21.70
2023-05-09T10:40:08.288Z,21.70
2023-05-09T10:42:38.760Z,21.80
2023-05-09T10:45:10.564Z,21.80
2023-05-09T10:47:59.442Z,21.90
2023-05-09T10:50:28.777Z,22.00
2023-05-09T10:53:14.264Z,22.00
2023-05-09T10:55:51.735Z,22.10
2023-05-09T10:58:23.680Z,22.20
2023-05-09T11:00:55.373Z,22.40
2023-05-09T11:03:27.209Z,22.60
2023-05-09T11:05:57.862Z,22.80
2023-05-09T11:08:27.818Z,23.00
2023-05-09T11:10:57.698Z,23.20
2023-05-09T11:13:33.061Z,23.30
2023-05-09T11:16:11.930Z,23.40
2023-05-09T11:18:54.881Z,23.40
2023-05-09T11:21:23.986Z,23.60
2023-05-09T11:23:55.249Z,23.80
2023-05-09T11:26:30.075Z,24.10
2023-05-09T11:29:02.962Z,24.20
2023-05-09T11:31:32.288Z,24.40
2023-05-09T11:34:05.077Z,24.40
2023-05-09T11:36:34.222Z,24.40
2023-05-09T11:39:06.574Z,24.30
2023-05-09T11:41:42.831Z,24.30
2023-05-09T11:44:18.491Z,24.30
2023-05-09T11:46:48.143Z,24.40
2023-05-09T11:49:19.563Z,24.40
2023-05-09T11:51:48.720Z,24.60
2023-05-09T11:54:19.694Z,24.60
2023-05-09T11:56:48.757Z,24.50
2023-05-09T11:59:20.555Z,24.40
2023-05-09T12:01:49.898Z,24.10
2023-05-09T12:04:19.054Z,23.90
2023-05-09T12:06:49.870Z,23.70
2023-05-09T12:09:20.168Z,23.40
2023-05-09T12:11:51.951Z,23.20
2023-05-09T12:14:32.805Z,23.00
2023-05-09T12:17:02.171Z,22.90
2023-05-09T12:19:31.367Z,22.90
2023-05-09T12:22:01.460Z,23.00
2023-05-09T12:24:31.950Z,23.10
2023-05-09T12:27:02.202Z,23.20
2023-05-09T12:29:33.309Z,23.30
2023-05-09T12:32:02.457Z,23.30
2023-05-09T12:34:32.409Z,23.40
2023-05-09T12:37:20.749Z,23.40
2023-05-09T12:40:10.551Z,23.50
2023-05-09T12:42:44.846Z,23.60
2023-05-09T12:45:15.923Z,23.60
2023-05-09T12:47:50.437Z,23.80
2023-05-09T12:50:21.640Z,23.80
2023-05-09T12:53:10.910Z,23.90
2023-05-09T12:55:42.624Z,23.90
2023-05-09T12:58:22.219Z,23.80
2023-05-09T13:00:53.161Z,23.70
2023-05-09T13:03:26.346Z,23.60
2023-05-09T13:05:59.924Z,23.40
2023-05-09T13:08:29.794Z,23.10
2023-05-09T13:11:11.939Z,23.00
2023-05-09T13:13:44.380Z,22.80
2023-05-09T13:16:17.357Z,22.60
2023-05-09T13:18:46.789Z,22.40
2023-05-09T13:21:17.147Z,22.30
2023-05-09T13:23:46.289Z,22.20
2023-05-09T13:26:15.286Z,22.00
2023-05-09T13:28:44.187Z,22.00
2023-05-09T13:31:14.644Z,21.90
2023-05-09T13:33:43.711Z,21.80
2023-05-09T13:36:12.840Z,21.70
2023-05-09T13:38:42.250Z,21.60
2023-05-09T13:41:11.657Z,21.60
2023-05-09T13:43:42.706Z,21.50
2023-05-09T13:46:11.745Z,21.40
2023-05-09T13:48:43.196Z,21.40
2023-05-09T13:51:14.591Z,21.30
2023-05-09T13:53:43.493Z,21.20
2023-05-09T13:56:12.415Z,21.20
2023-05-09T13:58:41.293Z,21.10
2023-05-09T14:01:10.636Z,21.10
2023-05-09T14:03:39.699Z,21.00
2023-05-09T14:06:10.739Z,21.00
2023-05-09T14:08:40.052Z,21.00
2023-05-09T14:11:12.335Z,21.00
2023-05-09T14:13:42.371Z,21.00
2023-05-09T14:16:15.025Z,20.90
2023-05-09T14:18:44.045Z,20.90
2023-05-09T14:21:14.911Z,20.80
2023-05-09T14:23:44.270Z,20.80
2023-05-09T14:26:13.915Z,20.70
2023-05-09T14:28:42.954Z,20.70
2023-05-09T14:31:12.068Z,20.60
2023-05-09T14:33:41.617Z,20.60
2023-05-09T14:36:11.174Z,20.50
2023-05-09T14:38:42.933Z,20.50
2023-05-09T14:41:12.807Z,20.40
2023-05-09T14:43:41.906Z,20.30
2023-05-09T14:46:10.856Z,20.30
2023-05-09T14:48:39.852Z,20.20
2023-05-09T14:51:10.110Z,20.10
2023-05-09T14:53:42.160Z,20.10
2023-05-09T14:56:12.085Z,20.10
2023-05-09T14:58:41.098Z,20.00
2023-05-09T15:01:10.274Z,20.00
2023-05-09T15:03:39.603Z,19.90
2023-05-09T15:06:08.677Z,19.90
2023-05-09T15:08:37.699Z,19.90
2023-05-09T15:11:28.770Z,19.80
2023-05-09T15:14:04.589Z,19.70
2023-05-09T15:16:34.254Z,19.70
2023-05-09T15:19:05.123Z,19.60
2023-05-09T15:21:35.252Z,19.60
2023-05-09T15:24:04.820Z,19.60
2023-05-09T15:26:35.270Z,19.50
2023-05-09T15:29:04.313Z,19.50
2023-05-09T15:31:34.781Z,19.50
2023-05-09T15:34:03.816Z,19.50
2023-05-09T15:36:33.975Z,19.40
2023-05-09T15:39:05.481Z,19.40
2023-05-09T15:41:36.180Z,19.30
2023-05-09T15:44:05.439Z,19.30
2023-05-09T15:46:34.863Z,19.30
2023-05-09T15:49:03.965Z,19.90
2023-05-09T15:51:32.940Z,19.30
2023-05-09T15:54:01.966Z,19.30
2023-05-09T15:56:31.597Z,19.20
2023-05-09T15:59:02.569Z,19.20
2023-05-09T16:01:33.297Z,19.20
2023-05-09T16:04:05.519Z,19.10
2023-05-09T16:06:34.780Z,19.00
2023-05-09T16:09:04.649Z,19.00
2023-05-09T16:11:33.858Z,19.00
2023-05-09T16:14:05.404Z,18.90
2023-05-09T16:16:34.736Z,18.90
2023-05-09T16:22:08.681Z,18.80
2023-05-09T16:24:37.908Z,18.70
2023-05-09T16:27:07.007Z,18.70
2023-05-09T16:29:37.484Z,18.60
2023-05-09T16:32:07.229Z,18.60
2023-05-09T16:34:36.803Z,18.50
2023-05-09T16:37:05.800Z,18.40
2023-05-09T16:39:34.997Z,18.40
2023-05-09T16:42:05.571Z,18.40
2023-05-09T16:44:34.491Z,18.40
2023-05-09T16:47:05.057Z,18.40
2023-05-09T16:49:34.257Z,18.30
2023-05-09T16:52:03.997Z,18.30
2023-05-09T16:54:33.092Z,18.20
2023-05-09T16:57:02.220Z,18.20
2023-05-09T16:59:31.169Z,18.10
2023-05-09T17:02:00.558Z,18.10
2023-05-09T17:04:31.007Z,18.10
2023-05-09T17:07:01.926Z,18.00
2023-05-09T17:09:31.018Z,18.00
2023-05-09T17:12:01.139Z,17.90
2023-05-09T17:14:30.128Z,17.80
2023-05-09T17:16:59.160Z,17.70
2023-05-09T17:19:29.628Z,17.60
2023-05-09T17:21:59.530Z,17.50
2023-05-09T17:24:28.556Z,17.40
2023-05-09T17:26:57.540Z,17.30
2023-05-09T17:29:29.309Z,17.20
2023-05-09T17:32:00.752Z,17.20
2023-05-09T17:34:32.402Z,17.10
2023-05-09T17:37:02.508Z,17.00
2023-05-09T17:39:38.035Z,16.90
2023-05-09T17:42:08.094Z,16.80
2023-05-09T17:44:37.820Z,16.70
2023-05-09T17:47:07.128Z,16.60
2023-05-09T17:49:37.923Z,16.60
2023-05-09T17:52:07.108Z,16.50
2023-05-09T17:54:36.548Z,16.50
2023-05-09T17:57:05.832Z,16.50
2023-05-09T17:59:34.754Z,16.50
2023-05-09T18:02:03.800Z,16.50
2023-05-09T18:04:34.529Z,16.50
2023-05-09T18:07:05.067Z,16.50
2023-05-09T18:09:34.054Z,16.50
2023-05-09T18:12:02.968Z,16.50
2023-05-09T18:14:31.812Z,16.50
2023-05-09T18:17:19.177Z,16.50
2023-05-09T18:19:48.153Z,16.50
2023-05-09T18:22:19.520Z,16.50
2023-05-09T18:24:48.660Z,16.40
2023-05-09T18:27:18.045Z,16.40
2023-05-09T18:29:47.968Z,16.40
2023-05-09T18:32:17.827Z,16.40
2023-05-09T18:34:48.638Z,16.30
2023-05-09T18:37:19.279Z,16.30
2023-05-09T18:39:49.381Z,16.30
2023-05-09T18:42:18.404Z,16.20
2023-05-09T18:44:47.372Z,16.20
2023-05-09T18:47:16.782Z,16.10
2023-05-09T18:49:45.802Z,16.10
2023-05-09T18:52:15.518Z,16.10
2023-05-09T18:54:46.328Z,16.00
2023-05-09T18:57:21.954Z,16.00
2023-05-09T18:59:52.495Z,15.90
2023-05-09T19:02:40.602Z,15.90
2023-05-09T19:05:11.554Z,15.90
2023-05-09T19:07:41.371Z,15.80
2023-05-09T19:10:15.115Z,15.80
2023-05-09T19:12:44.767Z,15.80
2023-05-09T19:15:14.736Z,15.80
2023-05-09T19:17:46.714Z,15.80
2023-05-09T19:20:34.968Z,15.80
2023-05-09T19:23:03.837Z,15.80
2023-05-09T19:25:34.323Z,15.80
2023-05-09T19:28:03.921Z,15.80
2023-05-09T19:30:32.922Z,15.80
2023-05-09T19:33:02.120Z,15.80
2023-05-09T19:35:31.307Z,15.80
2023-05-09T19:38:00.627Z,15.80
2023-05-09T19:40:29.877Z,15.80
2023-05-09T19:43:01.182Z,16.30
2023-05-09T19:45:30.491Z,15.70
2023-05-09T19:47:59.570Z,15.70
2023-05-09T19:50:28.731Z,15.70
2023-05-09T19:52:58.045Z,15.70
2023-05-09T19:55:27.328Z,15.70
2023-05-09T19:57:56.262Z,15.80
2023-05-09T20:00:27.053Z,15.80
2023-05-09T20:02:56.175Z,15.80
2023-05-09T20:05:25.368Z,15.80
2023-05-09T20:07:54.364Z,15.70
2023-05-09T20:10:23.402Z,15.70
2023-05-09T20:12:53.170Z,15.70
2023-05-09T20:15:22.282Z,15.70
2023-05-09T20:17:53.155Z,15.70
2023-05-09T20:20:22.526Z,15.70
2023-05-09T20:22:51.608Z,15.70
2023-05-09T20:25:20.558Z,16.00
2023-05-09T20:27:49.497Z,15.60
2023-05-09T20:30:18.575Z,15.60
2023-05-09T20:32:47.475Z,15.60
2023-05-09T20:35:24.049Z,15.60
2023-05-09T20:37:53.065Z,15.60
2023-05-09T20:40:22.190Z,15.60
2023-05-09T20:42:52.856Z,15.60
2023-05-09T20:45:22.028Z,15.60
2023-05-09T20:47:50.924Z,15.50
2023-05-09T20:50:21.543Z,15.50
2023-05-09T20:53:09.589Z,15.50
2023-05-09T20:55:38.652Z,15.50
2023-05-09T20:58:07.757Z,15.50
2023-05-09T21:00:36.878Z,15.40
2023-05-09T21:03:06.092Z,15.40
2023-05-09T21:05:37.197Z,15.40
2023-05-09T21:08:06.590Z,15.30
2023-05-09T21:10:35.552Z,15.30
2023-05-09T21:13:04.856Z,15.30
2023-05-09T21:15:34.327Z,15.30
2023-05-09T21:18:03.271Z,15.30
2023-05-09T21:20:32.248Z,15.30
2023-05-09T21:23:02.656Z,15.30
2023-05-09T21:25:31.626Z,15.30
2023-05-09T21:28:00.599Z,15.30
2023-05-09T21:30:30.466Z,15.30
2023-05-09T21:32:59.670Z,15.30
2023-05-09T21:35:28.557Z,15.30
2023-05-09T21:37:57.402Z,15.30
2023-05-09T21:40:27.874Z,15.30
2023-05-09T21:42:56.916Z,15.30
2023-05-09T21:45:25.977Z,15.20
2023-05-09T21:47:54.934Z,15.20
2023-05-09T21:50:24.138Z,15.20
2023-05-09T21:52:53.427Z,15.20
2023-05-09T21:55:24.105Z,15.10
2023-05-09T21:57:54.650Z,15.10
2023-05-09T22:00:42.016Z,15.10
2023-05-09T22:03:11.095Z,15.10
2023-05-09T22:05:40.118Z,15.10
2023-05-09T22:08:09.372Z,15.10
2023-05-09T22:10:38.932Z,15.20
2023-05-09T22:13:10.173Z,15.70
2023-05-09T22:15:39.510Z,15.10
2023-05-09T22:18:08.919Z,15.10
2023-05-09T22:20:37.888Z,15.10
2023-05-09T22:23:10.015Z,15.10
2023-05-09T22:25:38.917Z,15.00
2023-05-09T22:28:09.490Z,15.00
2023-05-09T22:30:38.960Z,15.00
2023-05-09T22:33:07.948Z,15.00
2023-05-09T22:35:36.881Z,15.00
2023-05-09T22:38:05.831Z,15.00
2023-05-09T22:40:34.895Z,15.00
2023-05-09T22:43:03.902Z,15.00
2023-05-09T22:45:34.341Z,15.00
2023-05-09T22:48:03.875Z,15.00
2023-05-09T22:50:32.874Z,15.00
2023-05-09T22:53:01.827Z,14.90
2023-05-09T22:55:30.826Z,14.90
2023-05-09T22:57:59.766Z,14.80
2023-05-09T23:00:29.147Z,14.80
2023-05-09T23:03:00.573Z,14.80
2023-05-09T23:05:29.790Z,14.80
2023-05-09T23:07:58.827Z,14.80
2023-05-09T23:10:29.622Z,14.70
2023-05-09T23:12:58.649Z,14.70
2023-05-09T23:15:27.816Z,14.70
2023-05-09T23:17:56.798Z,14.70
2023-05-09T23:20:27.464Z,14.70
2023-05-09T23:22:56.638Z,14.60
2023-05-09T23:25:26.222Z,14.60
2023-05-09T23:27:55.317Z,14.60
2023-05-09T23:30:24.271Z,14.70
2023-05-09T23:32:53.267Z,14.70
2023-05-09T23:35:22.521Z,14.70
2023-05-09T23:37:52.822Z,14.70
2023-05-09T23:40:22.080Z,14.70
2023-05-09T23:42:51.021Z,14.70
2023-05-09T23:45:20.107Z,14.70
2023-05-09T23:47:49.201Z,14.80
2023-05-09T23:50:18.552Z,14.80
2023-05-09T23:52:49.504Z,14.80
2023-05-09T23:55:20.059Z,14.80
2023-05-09T23:57:49.351Z,14.80
